createdAt,value
2023-03-02T00:01:54.248Z,9.85
2023-03-02T00:04:32.026Z,11.55
2023-03-02T00:07:04.541Z,10.48
2023-03-02T00:09:32.511Z,9.63
2023-03-02T00:11:59.383Z,9.32
2023-03-02T00:14:26.138Z,8.68
2023-03-02T00:16:52.996Z,8.43
2023-03-02T00:19:19.706Z,9.57
2023-03-02T00:21:46.823Z,9.98
2023-03-02T00:24:15.611Z,9.23
2023-03-02T00:26:42.512Z,7.53
2023-03-02T00:29:09.349Z,8.13
2023-03-02T00:31:38.061Z,7.93
2023-03-02T00:34:04.941Z,7.70
2023-03-02T00:36:32.364Z,7.22
2023-03-02T00:38:59.491Z,8.02
2023-03-02T00:41:26.209Z,8.20
2023-03-02T00:43:53.038Z,7.28
2023-03-02T00:46:23.465Z,7.60
2023-03-02T00:48:52.053Z,7.35
2023-03-02T00:51:19.452Z,7.82
2023-03-02T00:53:46.345Z,7.70
2023-03-02T00:56:13.369Z,7.57
2023-03-02T00:58:40.545Z,7.93
2023-03-02T01:01:13.562Z,8.70
2023-03-02T01:03:40.404Z,8.10
2023-03-02T01:06:19.519Z,8.43
2023-03-02T01:08:47.321Z,8.65
2023-03-02T01:11:21.939Z,8.38
2023-03-02T01:13:50.242Z,7.85
2023-03-02T01:16:18.220Z,8.13
2023-03-02T01:18:45.444Z,7.68
2023-03-02T01:21:15.780Z,8.52
2023-03-02T01:23:42.954Z,7.97
2023-03-02T01:26:09.908Z,7.38
2023-03-02T01:28:36.780Z,7.70
2023-03-02T01:31:04.615Z,8.27
2023-03-02T01:33:32.882Z,8.30
2023-03-02T01:36:00.012Z,8.65
2023-03-02T01:38:27.625Z,8.63
2023-03-02T01:40:54.434Z,8.43
2023-03-02T01:43:21.609Z,8.20
2023-03-02T01:46:03.013Z,8.35
2023-03-02T01:48:52.703Z,7.72
2023-03-02T01:51:23.722Z,8.43
2023-03-02T01:53:56.873Z,8.48
2023-03-02T01:56:32.393Z,8.20
2023-03-02T01:59:07.646Z,8.23
2023-03-02T02:01:39.386Z,7.82
2023-03-02T02:04:07.525Z,8.45
2023-03-02T02:06:49.903Z,8.30
2023-03-02T02:09:20.710Z,8.68
2023-03-02T02:11:48.062Z,9.25
2023-03-02T02:14:15.988Z,8.73
2023-03-02T02:16:42.928Z,7.95
2023-03-02T02:19:38.161Z,8.27
2023-03-02T02:22:04.996Z,8.45
2023-03-02T02:24:45.965Z,8.70
2023-03-02T02:27:14.567Z,7.93
2023-03-02T02:29:48.126Z,8.57
2023-03-02T02:32:30.287Z,8.15
2023-03-02T02:35:25.044Z,8.05
2023-03-02T02:37:59.183Z,7.85
2023-03-02T02:41:07.954Z,8.00
2023-03-02T02:43:34.980Z,7.93
2023-03-02T02:46:02.885Z,8.60
2023-03-02T02:48:32.496Z,9.15
2023-03-02T02:51:00.581Z,8.20
2023-03-02T02:53:44.624Z,7.85
2023-03-02T02:56:14.104Z,8.80
2023-03-02T02:58:47.251Z,8.93
2023-03-02T03:01:26.132Z,8.63
2023-03-02T03:04:01.816Z,9.00
2023-03-02T03:06:42.429Z,8.95
2023-03-02T03:09:11.593Z,8.68
2023-03-02T03:11:44.817Z,8.38
2023-03-02T03:14:16.039Z,8.82
2023-03-02T03:16:47.142Z,8.55
2023-03-02T03:19:33.393Z,8.70
2023-03-02T03:22:02.291Z,8.68
2023-03-02T03:24:32.945Z,9.05
2023-03-02T03:27:01.407Z,9.15
2023-03-02T03:29:30.070Z,9.07
2023-03-02T03:31:58.281Z,8.80
2023-03-02T03:34:26.611Z,9.75
2023-03-02T03:36:53.933Z,9.32
2023-03-02T03:39:21.114Z,9.00
2023-03-02T03:41:47.889Z,8.90
2023-03-02T03:44:14.648Z,9.50
2023-03-02T03:46:41.441Z,9.45
2023-03-02T03:49:08.231Z,9.15
2023-03-02T03:51:35.589Z,9.18
2023-03-02T03:54:05.379Z,8.80
2023-03-02T03:56:38.871Z,8.77
2023-03-02T03:59:09.746Z,8.50
2023-03-02T04:02:08.360Z,9.27
2023-03-02T04:04:36.185Z,9.48
2023-03-02T04:07:03.393Z,10.02
2023-03-02T04:09:32.261Z,9.18
2023-03-02T04:11:59.079Z,9.13
2023-03-02T04:14:25.977Z,9.30
2023-03-02T04:16:53.200Z,9.73
2023-03-02T04:19:20.834Z,9.65
2023-03-02T04:21:52.510Z,9.88
2023-03-02T04:24:22.307Z,10.35
2023-03-02T04:26:50.506Z,9.52
2023-03-02T04:29:18.554Z,10.50
2023-03-02T04:31:45.431Z,10.77
2023-03-02T04:34:12.164Z,11.23
2023-03-02T04:36:40.516Z,10.40
2023-03-02T04:39:08.175Z,11.23
2023-03-02T04:41:35.929Z,11.52
2023-03-02T04:44:02.915Z,11.32
2023-03-02T04:46:29.861Z,12.63
2023-03-02T04:48:56.709Z,11.43
2023-03-02T04:51:37.504Z,12.00
2023-03-02T04:54:10.998Z,12.20
2023-03-02T04:56:37.810Z,11.80
2023-03-02T04:59:04.623Z,12.65
2023-03-02T05:01:31.543Z,11.90
2023-03-02T05:03:58.396Z,12.13
2023-03-02T05:06:25.277Z,12.25
2023-03-02T05:08:53.230Z,12.63
2023-03-02T05:11:23.248Z,12.07
2023-03-02T05:13:59.922Z,12.00
2023-03-02T05:16:29.280Z,10.95
2023-03-02T05:18:56.401Z,12.27
2023-03-02T05:21:24.481Z,12.70
2023-03-02T05:23:53.791Z,12.88
2023-03-02T05:26:20.798Z,11.63
2023-03-02T05:28:47.630Z,11.68
2023-03-02T05:31:21.315Z,12.75
2023-03-02T05:33:48.697Z,11.80
2023-03-02T05:36:18.995Z,12.77
2023-03-02T05:38:46.705Z,12.27
2023-03-02T05:41:13.494Z,12.90
2023-03-02T05:43:40.646Z,15.07
2023-03-02T05:46:07.600Z,14.07
2023-03-02T05:48:34.406Z,14.30
2023-03-02T05:51:01.608Z,13.60
2023-03-02T05:53:28.518Z,13.18
2023-03-02T05:55:55.532Z,14.73
2023-03-02T05:58:22.373Z,15.10
2023-03-02T06:00:49.875Z,14.18
2023-03-02T06:03:17.227Z,14.20
2023-03-02T06:05:44.582Z,14.75
2023-03-02T06:08:11.327Z,15.60
2023-03-02T06:10:38.569Z,15.30
2023-03-02T06:13:05.333Z,14.30
2023-03-02T06:15:32.144Z,15.20
2023-03-02T06:17:58.967Z,14.63
2023-03-02T06:20:25.928Z,15.80
2023-03-02T06:22:53.131Z,15.80
2023-03-02T06:25:23.709Z,14.43
2023-03-02T06:27:52.389Z,14.13
2023-03-02T06:30:24.101Z,14.35
2023-03-02T06:32:51.477Z,14.82
2023-03-02T06:35:18.899Z,14.07
2023-03-02T06:37:45.711Z,15.60
2023-03-02T06:40:13.899Z,15.00
2023-03-02T06:42:42.683Z,15.75
2023-03-02T06:45:11.376Z,14.52
2023-03-02T06:47:38.536Z,16.02
2023-03-02T06:50:06.499Z,15.63
2023-03-02T06:52:33.741Z,17.30
2023-03-02T06:55:00.581Z,15.23
2023-03-02T06:57:33.700Z,16.98
2023-03-02T07:00:09.535Z,17.27
2023-03-02T07:02:37.636Z,16.52
2023-03-02T07:05:06.495Z,17.52
2023-03-02T07:07:33.225Z,16.52
2023-03-02T07:09:59.971Z,16.42
2023-03-02T07:12:26.943Z,17.50
2023-03-02T07:14:53.742Z,16.45
2023-03-02T07:17:20.560Z,17.25
2023-03-02T07:19:47.440Z,16.42
2023-03-02T07:22:14.341Z,18.02
2023-03-02T07:24:41.954Z,16.40
2023-03-02T07:27:09.732Z,15.77
2023-03-02T07:29:36.456Z,16.70
2023-03-02T07:32:04.232Z,17.80
2023-03-02T07:34:31.022Z,16.80
2023-03-02T07:36:57.897Z,16.10
2023-03-02T07:39:24.645Z,15.65
2023-03-02T07:41:51.356Z,15.48
2023-03-02T07:44:18.050Z,15.25
2023-03-02T07:46:44.865Z,14.93
2023-03-02T07:49:11.580Z,15.70
2023-03-02T07:51:38.336Z,14.65
2023-03-02T07:54:05.171Z,15.30
2023-03-02T07:56:31.987Z,13.70
2023-03-02T07:58:58.725Z,14.23
2023-03-02T08:01:25.861Z,13.15
2023-03-02T08:03:52.831Z,14.13
2023-03-02T08:06:19.960Z,13.32
2023-03-02T08:08:49.432Z,14.02
2023-03-02T08:11:18.400Z,15.40
2023-03-02T08:13:46.361Z,15.10
2023-03-02T08:16:15.842Z,14.45
2023-03-02T08:18:43.773Z,14.80
2023-03-02T08:21:21.230Z,14.38
2023-03-02T08:23:49.717Z,15.27
2023-03-02T08:26:19.506Z,15.38
2023-03-02T08:28:47.034Z,14.10
2023-03-02T08:31:14.180Z,15.65
2023-03-02T08:33:42.179Z,15.65
2023-03-02T08:36:16.408Z,15.52
2023-03-02T08:38:44.506Z,14.63
2023-03-02T08:41:16.285Z,14.90
2023-03-02T08:43:43.059Z,14.90
2023-03-02T08:46:12.367Z,15.30
2023-03-02T08:48:39.615Z,15.73
2023-03-02T08:51:11.734Z,15.23
2023-03-02T08:53:42.498Z,15.50
2023-03-02T08:56:26.067Z,16.95
2023-03-02T08:58:57.537Z,15.73
2023-03-02T09:01:29.947Z,17.85
2023-03-02T09:03:59.947Z,16.20
2023-03-02T09:06:32.740Z,17.90
2023-03-02T09:08:59.769Z,16.10
2023-03-02T09:11:26.997Z,15.13
2023-03-02T09:13:54.630Z,16.35
2023-03-02T09:16:21.707Z,15.75
2023-03-02T09:18:48.644Z,23.13
2023-03-02T09:21:15.586Z,19.45
2023-03-02T09:23:42.595Z,16.55
2023-03-02T09:26:09.689Z,16.15
2023-03-02T09:28:37.510Z,14.32
2023-03-02T09:31:07.599Z,13.68
2023-03-02T09:33:34.803Z,14.45
2023-03-02T09:36:11.551Z,13.63
2023-03-02T09:38:38.583Z,13.43
2023-03-02T09:41:52.377Z,13.32
2023-03-02T09:44:43.987Z,12.70
2023-03-02T09:47:50.431Z,13.82
2023-03-02T09:50:31.616Z,13.27
2023-03-02T09:53:31.129Z,13.00
2023-03-02T09:56:02.404Z,13.02
2023-03-02T09:58:36.202Z,15.52
2023-03-02T10:01:12.569Z,12.77
2023-03-02T10:03:50.911Z,12.00
2023-03-02T10:06:17.787Z,12.80
2023-03-02T10:08:44.674Z,11.85
2023-03-02T10:11:24.644Z,12.90
2023-03-02T10:14:12.849Z,13.60
2023-03-02T10:17:14.291Z,14.07
2023-03-02T10:19:49.566Z,11.85
2023-03-02T10:22:38.022Z,12.18
2023-03-02T10:25:43.320Z,11.35
2023-03-02T10:28:35.474Z,11.15
2023-03-02T10:31:17.165Z,12.05
2023-03-02T10:33:44.110Z,11.18
2023-03-02T10:36:40.116Z,10.63
2023-03-02T10:39:17.924Z,9.48
2023-03-02T10:42:03.545Z,9.60
2023-03-02T10:44:38.223Z,10.35
2023-03-02T10:47:07.627Z,10.20
2023-03-02T10:49:42.803Z,9.57
2023-03-02T10:52:15.349Z,9.75
2023-03-02T10:54:42.570Z,9.68
2023-03-02T10:57:37.065Z,9.60
2023-03-02T11:00:23.276Z,10.43
2023-03-02T11:03:00.588Z,9.55
2023-03-02T11:05:33.784Z,9.77
2023-03-02T11:08:09.617Z,10.30
2023-03-02T11:10:40.814Z,10.05
2023-03-02T11:13:23.783Z,9.52
2023-03-02T11:15:54.460Z,9.27
2023-03-02T11:18:32.884Z,9.13
2023-03-02T11:21:05.705Z,8.88
2023-03-02T11:23:59.911Z,8.05
2023-03-02T11:26:35.540Z,8.55
2023-03-02T11:29:23.409Z,8.70
2023-03-02T11:32:11.126Z,8.55
2023-03-02T11:35:09.184Z,8.65
2023-03-02T11:37:53.572Z,7.70
2023-03-02T11:43:04.923Z,7.00
2023-03-02T11:45:37.358Z,7.88
2023-03-02T11:48:33.159Z,7.45
2023-03-02T11:51:23.241Z,7.97
2023-03-02T11:54:04.692Z,8.93
2023-03-02T11:56:36.700Z,8.60
2023-03-02T11:59:25.757Z,8.93
2023-03-02T12:01:57.059Z,9.02
2023-03-02T12:04:32.373Z,9.13
2023-03-02T12:07:03.904Z,8.93
2023-03-02T12:09:37.655Z,8.13
2023-03-02T12:12:48.159Z,8.82
2023-03-02T12:15:40.835Z,8.77
2023-03-02T12:18:22.800Z,8.45
2023-03-02T12:21:12.906Z,8.70
2023-03-02T12:23:56.902Z,8.70
2023-03-02T12:26:29.641Z,9.48
2023-03-02T12:29:22.583Z,9.93
2023-03-02T12:31:54.322Z,8.45
2023-03-02T12:34:35.004Z,9.30
2023-03-02T12:37:26.728Z,8.98
2023-03-02T12:40:27.781Z,9.13
2023-03-02T12:43:26.110Z,8.55
2023-03-02T12:46:33.894Z,8.77
2023-03-02T12:49:32.980Z,8.70
2023-03-02T12:52:18.570Z,8.20
2023-03-02T12:54:45.354Z,8.57
2023-03-02T12:57:19.570Z,9.02
2023-03-02T12:59:55.872Z,8.63
2023-03-02T13:02:28.585Z,8.57
2023-03-02T13:05:05.158Z,9.27
2023-03-02T13:07:43.857Z,9.30
2023-03-02T13:10:29.372Z,8.65
2023-03-02T13:12:58.443Z,8.65
2023-03-02T13:15:25.211Z,9.13
2023-03-02T13:17:59.942Z,9.25
2023-03-02T13:20:29.860Z,9.25
2023-03-02T13:22:57.124Z,9.52
2023-03-02T13:25:28.910Z,10.25
2023-03-02T13:28:07.434Z,8.75
2023-03-02T13:30:37.518Z,8.70
2023-03-02T13:33:25.024Z,8.45
2023-03-02T13:35:51.906Z,8.65
2023-03-02T13:38:22.417Z,8.48
2023-03-02T13:40:53.205Z,8.95
2023-03-02T13:43:40.930Z,8.55
2023-03-02T13:46:36.309Z,8.50
2023-03-02T13:49:10.694Z,7.93
2023-03-02T13:51:48.194Z,7.70
2023-03-02T13:54:27.612Z,8.70
2023-03-02T13:57:00.858Z,8.43
2023-03-02T13:59:28.293Z,8.35
2023-03-02T14:01:55.410Z,7.65
2023-03-02T14:04:23.716Z,7.53
2023-03-02T14:06:54.336Z,8.32
2023-03-02T14:09:21.814Z,7.63
2023-03-02T14:11:53.667Z,7.28
2023-03-02T14:14:25.061Z,7.60
2023-03-02T14:16:52.362Z,7.85
2023-03-02T14:19:20.131Z,8.27
2023-03-02T14:21:47.974Z,6.75
2023-03-02T14:24:14.922Z,8.43
2023-03-02T14:26:49.048Z,7.75
2023-03-02T14:29:34.429Z,9.18
2023-03-02T14:32:04.212Z,8.20
2023-03-02T14:34:30.986Z,8.15
2023-03-02T14:37:02.659Z,8.50
2023-03-02T14:39:38.877Z,7.45
2023-03-02T14:42:11.296Z,8.05
2023-03-02T14:44:38.489Z,8.75
2023-03-02T14:47:05.305Z,9.48
2023-03-02T14:49:32.161Z,9.85
2023-03-02T14:52:20.655Z,9.50
2023-03-02T14:54:54.240Z,11.40
2023-03-02T14:57:25.394Z,11.63
2023-03-02T14:59:53.991Z,13.77
2023-03-02T15:02:26.197Z,14.00
2023-03-02T15:04:56.820Z,15.93
2023-03-02T15:07:28.798Z,18.85
2023-03-02T15:09:57.521Z,20.30
2023-03-02T15:12:24.434Z,21.00
2023-03-02T15:14:51.464Z,22.65
2023-03-02T15:17:18.216Z,21.60
2023-03-02T15:19:44.985Z,24.27
2023-03-02T15:22:13.557Z,25.30
2023-03-02T15:24:40.336Z,26.90
2023-03-02T15:27:07.688Z,27.38
2023-03-02T15:29:34.593Z,32.33
2023-03-02T15:32:01.495Z,31.48
2023-03-02T15:34:28.326Z,34.33
2023-03-02T15:36:55.176Z,36.17
2023-03-02T15:39:21.928Z,33.72
2023-03-02T15:41:48.656Z,33.85
2023-03-02T15:44:22.414Z,32.58
2023-03-02T15:49:22.761Z,31.15
2023-03-02T15:51:51.922Z,31.85
2023-03-02T15:54:19.227Z,32.10
2023-03-02T15:56:49.682Z,34.42
2023-03-02T15:59:16.499Z,32.17
2023-03-02T16:01:44.223Z,30.90
2023-03-02T16:04:11.123Z,29.48
2023-03-02T16:06:38.826Z,29.00
2023-03-02T16:09:05.836Z,28.23
2023-03-02T16:11:32.730Z,26.65
2023-03-02T16:13:59.584Z,26.10
2023-03-02T16:16:26.494Z,26.50
2023-03-02T16:18:56.138Z,26.00
2023-03-02T16:21:25.874Z,25.75
2023-03-02T16:23:53.625Z,28.25
2023-03-02T16:26:22.336Z,25.30
2023-03-02T16:28:49.435Z,21.42
2023-03-02T16:31:20.844Z,21.40
2023-03-02T16:33:50.171Z,21.00
2023-03-02T16:36:17.011Z,22.80
2023-03-02T16:38:43.734Z,21.00
2023-03-02T16:41:21.541Z,22.67
2023-03-02T16:43:55.552Z,21.25
2023-03-02T16:48:50.921Z,22.05
2023-03-02T16:51:18.714Z,22.70
2023-03-02T16:53:46.067Z,23.00
2023-03-02T16:56:13.770Z,22.70
2023-03-02T16:58:42.021Z,22.05
2023-03-02T17:01:13.556Z,19.65
2023-03-02T17:03:41.609Z,18.30
2023-03-02T17:06:11.532Z,16.10
2023-03-02T17:08:38.552Z,14.82
2023-03-02T17:11:06.017Z,14.45
2023-03-02T17:13:32.806Z,15.43
2023-03-02T17:15:59.796Z,15.38
2023-03-02T17:18:28.111Z,13.73
2023-03-02T17:20:58.045Z,14.85
2023-03-02T17:23:27.076Z,14.88
2023-03-02T17:25:55.519Z,14.20
2023-03-02T17:28:22.375Z,15.70
2023-03-02T17:30:49.462Z,16.02
2023-03-02T17:33:17.108Z,15.00
2023-03-02T17:35:43.916Z,14.93
2023-03-02T17:38:11.499Z,14.55
2023-03-02T17:40:38.474Z,14.65
2023-03-02T17:43:05.272Z,14.15
2023-03-02T17:45:32.074Z,12.98
2023-03-02T17:47:59.108Z,12.50
2023-03-02T17:50:27.247Z,11.05
2023-03-02T17:52:54.344Z,10.85
2023-03-02T17:55:21.161Z,10.25
2023-03-02T17:57:47.969Z,11.00
2023-03-02T18:00:19.638Z,10.27
2023-03-02T18:02:46.443Z,12.43
2023-03-02T18:05:13.265Z,12.18
2023-03-02T18:07:40.068Z,11.90
2023-03-02T18:10:07.825Z,12.82
2023-03-02T18:12:35.221Z,11.93
2023-03-02T18:15:02.091Z,11.98
2023-03-02T18:17:29.128Z,13.18
2023-03-02T18:19:56.291Z,12.45
2023-03-02T18:22:23.096Z,14.02
2023-03-02T18:24:51.159Z,13.82
2023-03-02T18:27:17.940Z,11.98
2023-03-02T18:29:44.777Z,12.02
2023-03-02T18:32:12.103Z,11.85
2023-03-02T18:34:38.981Z,10.07
2023-03-02T18:37:05.991Z,10.05
2023-03-02T18:39:32.791Z,11.05
2023-03-02T18:41:59.751Z,10.35
2023-03-02T18:44:28.367Z,11.75
2023-03-02T18:46:55.794Z,11.27
2023-03-02T18:49:23.406Z,11.25
2023-03-02T18:51:50.622Z,9.18
2023-03-02T18:54:17.359Z,8.23
2023-03-02T18:56:44.583Z,8.13
2023-03-02T18:59:12.164Z,6.95
2023-03-02T19:01:42.113Z,7.40
2023-03-02T19:04:08.939Z,7.63
2023-03-02T19:06:35.953Z,7.47
2023-03-02T19:09:02.745Z,8.07
2023-03-02T19:11:29.539Z,8.27
2023-03-02T19:13:56.302Z,7.20
2023-03-02T19:16:23.071Z,7.78
2023-03-02T19:18:50.139Z,7.25
2023-03-02T19:21:17.503Z,7.90
2023-03-02T19:23:46.429Z,7.47
2023-03-02T19:26:13.709Z,7.97
2023-03-02T19:28:40.611Z,8.27
2023-03-02T19:31:09.374Z,8.43
2023-03-02T19:33:36.446Z,8.48
2023-03-02T19:36:08.013Z,7.03
2023-03-02T19:38:40.621Z,6.85
2023-03-02T19:41:11.125Z,6.63
2023-03-02T19:43:38.067Z,6.90
2023-03-02T19:46:05.245Z,5.90
2023-03-02T19:48:33.991Z,6.43
2023-03-02T19:51:00.772Z,8.02
2023-03-02T19:53:27.495Z,7.88
2023-03-02T19:55:59.808Z,7.28
2023-03-02T19:58:28.252Z,8.23
2023-03-02T20:00:55.392Z,9.13
2023-03-02T20:03:22.231Z,10.07
2023-03-02T20:05:49.465Z,9.13
2023-03-02T20:08:17.075Z,10.20
2023-03-02T20:10:49.549Z,10.70
2023-03-02T20:13:17.600Z,9.73
2023-03-02T20:15:46.975Z,9.13
2023-03-02T20:18:19.976Z,9.52
2023-03-02T20:20:48.407Z,9.30
2023-03-02T20:23:16.139Z,8.82
2023-03-02T20:25:43.461Z,8.55
2023-03-02T20:28:13.660Z,12.20
2023-03-02T20:30:51.909Z,14.50
2023-03-02T20:33:24.048Z,18.33
2023-03-02T20:35:55.155Z,14.98
2023-03-02T20:38:32.458Z,12.77
2023-03-02T20:41:01.263Z,12.75
2023-03-02T20:43:29.144Z,10.38
2023-03-02T20:45:59.403Z,9.23
2023-03-02T20:48:27.299Z,8.40
2023-03-02T20:50:54.884Z,7.45
2023-03-02T20:53:22.142Z,7.75
2023-03-02T20:55:49.273Z,7.22
2023-03-02T20:58:16.258Z,7.53
2023-03-02T21:00:43.637Z,7.75
2023-03-02T21:03:10.481Z,8.10
2023-03-02T21:05:40.690Z,7.25
2023-03-02T21:08:12.564Z,8.18
2023-03-02T21:10:42.923Z,7.72
2023-03-02T21:13:11.812Z,8.18
2023-03-02T21:15:40.953Z,7.93
2023-03-02T21:18:07.847Z,6.28
2023-03-02T21:20:36.032Z,6.53
2023-03-02T21:23:04.044Z,7.30
2023-03-02T21:25:31.431Z,7.65
2023-03-02T21:27:58.786Z,6.63
2023-03-02T21:30:31.006Z,6.30
2023-03-02T21:33:02.028Z,6.32
2023-03-02T21:35:29.559Z,7.28
2023-03-02T21:38:04.704Z,6.63
2023-03-02T21:40:40.714Z,5.85
2023-03-02T21:43:13.252Z,6.60
2023-03-02T21:45:41.405Z,6.72
2023-03-02T21:48:08.603Z,6.20
2023-03-02T21:50:38.560Z,7.82
2023-03-02T21:53:06.536Z,7.68
2023-03-02T21:55:34.215Z,8.82
2023-03-02T21:58:01.005Z,8.48
2023-03-02T22:00:38.684Z,7.57
2023-03-02T22:03:06.907Z,8.38
2023-03-02T22:05:34.796Z,9.13
2023-03-02T22:08:01.525Z,9.63
2023-03-02T22:10:41.824Z,9.77
2023-03-02T22:13:23.681Z,9.63
2023-03-02T22:15:58.165Z,10.68
2023-03-02T22:18:27.057Z,11.70
2023-03-02T22:20:53.815Z,12.63
2023-03-02T22:23:27.213Z,11.65
2023-03-02T22:26:02.049Z,11.75
2023-03-02T22:28:29.011Z,11.95
2023-03-02T22:31:00.452Z,11.10
2023-03-02T22:33:29.460Z,10.52
2023-03-02T22:36:22.512Z,10.60
2023-03-02T22:38:49.300Z,10.35
2023-03-02T22:41:20.802Z,10.88
2023-03-02T22:43:49.391Z,11.00
2023-03-02T22:46:20.560Z,10.88
2023-03-02T22:48:52.587Z,10.25
2023-03-02T22:51:27.698Z,10.55
2023-03-02T22:54:00.433Z,11.27
2023-03-02T22:56:42.573Z,11.93
2023-03-02T22:59:26.972Z,11.40
2023-03-02T23:02:13.992Z,11.57
2023-03-02T23:04:50.097Z,10.80
2023-03-02T23:07:22.187Z,11.50
2023-03-02T23:09:49.243Z,10.57
2023-03-02T23:12:26.667Z,11.38
2023-03-02T23:15:00.004Z,11.52
2023-03-02T23:17:39.570Z,11.57
2023-03-02T23:20:11.552Z,11.23
2023-03-02T23:22:39.122Z,11.98
2023-03-02T23:25:09.275Z,11.63
2023-03-02T23:27:36.280Z,12.85
2023-03-02T23:30:04.482Z,11.55
2023-03-02T23:32:31.362Z,12.02
2023-03-02T23:34:58.195Z,11.82
2023-03-02T23:37:25.029Z,11.82
2023-03-02T23:39:55.153Z,12.30
2023-03-02T23:42:21.873Z,11.65
2023-03-02T23:44:49.143Z,11.45
2023-03-02T23:47:16.455Z,11.85
2023-03-02T23:49:43.668Z,11.32
2023-03-02T23:52:10.414Z,12.25
2023-03-02T23:54:39.048Z,11.05
2023-03-02T23:57:05.879Z,11.30
2023-03-02T23:59:32.612Z,11.82
